Time;durP1;ratioP1;P1;durP2;ratioP2;P2;SDS_P1;SDS_P2;PMS_P1;PMS_P2;Temp;Humidity;BMP_temperature;BMP_pressure;BME280_temperature;BME280_humidity;BME280_pressure;Samples;Min_cycle;Max_cycle;Signal;HPM_P1;HPM_P2
2023/02/27 00:02:12;;;;;;;1.48;1.23;;;;;;;;;;10397737;28;20427;-85
2023/02/27 00:07:14;;;;;;;1.35;1.10;;;;;;;;;;10391716;28;20417;-85
2023/02/27 00:12:18;;;;;;;1.67;1.10;;;;;;;;;;10401242;28;21324;-85
2023/02/27 00:17:20;;;;;;;2.33;1.20;;;;;;;;;;10398507;28;20401;-84
2023/02/27 00:22:21;;;;;;;1.80;1.27;;;;;;;;;;10398675;28;20962;-85
2023/02/27 00:27:25;;;;;;;1.75;1.15;;;;;;;;;;10400631;28;20410;-85
2023/02/27 00:32:28;;;;;;;1.65;1.30;;;;;;;;;;10388785;28;20516;-83
2023/02/27 00:37:29;;;;;;;1.67;1.20;;;;;;;;;;10394486;28;20780;-85
2023/02/27 00:42:33;;;;;;;1.23;0.90;;;;;;;;;;10392891;28;20516;-84
2023/02/27 00:47:35;;;;;;;1.55;1.10;;;;;;;;;;10399109;28;20409;-85
2023/02/27 00:52:37;;;;;;;1.60;1.07;;;;;;;;;;10395063;28;20912;-83
2023/02/27 00:57:40;;;;;;;1.15;1.05;;;;;;;;;;10397122;28;20408;-85
2023/02/27 01:02:42;;;;;;;1.10;0.87;;;;;;;;;;10384375;28;20421;-84
2023/02/27 01:07:44;;;;;;;1.50;0.90;;;;;;;;;;10393373;28;20502;-85
2023/02/27 01:12:47;;;;;;;1.10;0.80;;;;;;;;;;10396499;28;20405;-85
2023/02/27 01:17:49;;;;;;;1.27;0.80;;;;;;;;;;10401871;28;20420;-84
2023/02/27 01:22:50;;;;;;;1.00;0.90;;;;;;;;;;10390348;28;20452;-85
2023/02/27 01:27:54;;;;;;;1.92;1.02;;;;;;;;;;10399988;28;20459;-85
2023/02/27 01:32:56;;;;;;;0.93;0.90;;;;;;;;;;10392027;28;20503;-85
2023/02/27 01:37:57;;;;;;;1.45;0.98;;;;;;;;;;10392166;28;20413;-85
2023/02/27 01:43:01;;;;;;;1.20;1.00;;;;;;;;;;10392146;28;20842;-85
2023/02/27 01:48:12;;;;;;;0.93;0.80;;;;;;;;;;10394719;28;20406;-84
2023/02/27 01:53:14;;;;;;;0.70;0.70;;;;;;;;;;10379535;28;20826;-84
2023/02/27 01:58:18;;;;;;;1.40;0.75;;;;;;;;;;10395375;28;20413;-85
2023/02/27 02:03:26;;;;;;;0.70;0.70;;;;;;;;;;10382297;28;20431;-85
2023/02/27 02:08:32;;;;;;;1.87;0.80;;;;;;;;;;10388804;28;20427;-85
2023/02/27 02:13:36;;;;;;;0.73;0.70;;;;;;;;;;10395444;28;20417;-83
2023/02/27 02:18:47;;;;;;;1.65;0.90;;;;;;;;;;10394516;28;20411;-85
2023/02/27 02:24:36;;;;;;;0.70;0.70;;;;;;;;;;10394686;28;20453;-84
2023/02/27 02:30:15;;;;;;;1.00;0.90;;;;;;;;;;10398925;28;20992;-85
2023/02/27 02:36:03;;;;;;;1.42;0.80;;;;;;;;;;10381656;28;20522;-84
2023/02/27 02:41:15;;;;;;;0.90;0.70;;;;;;;;;;10329314;28;20790;-84
2023/02/27 02:46:26;;;;;;;0.80;0.60;;;;;;;;;;10401346;28;20484;-84
2023/02/27 02:51:35;;;;;;;1.30;0.65;;;;;;;;;;10392552;28;20913;-85
2023/02/27 02:56:44;;;;;;;1.10;0.70;;;;;;;;;;10395782;28;20413;-84
2023/02/27 03:01:50;;;;;;;0.60;0.60;;;;;;;;;;10401675;28;20888;-84
2023/02/27 03:06:58;;;;;;;1.05;0.80;;;;;;;;;;10395451;28;20518;-85
2023/02/27 03:12:03;;;;;;;1.50;0.90;;;;;;;;;;10399955;28;20433;-85
2023/02/27 03:17:10;;;;;;;1.60;0.90;;;;;;;;;;10397001;28;20888;-85
2023/02/27 03:22:17;;;;;;;1.10;0.80;;;;;;;;;;10399210;28;20422;-84
2023/02/27 03:27:21;;;;;;;0.70;0.57;;;;;;;;;;10401759;28;20421;-85
2023/02/27 03:32:30;;;;;;;1.17;0.70;;;;;;;;;;10400561;28;20483;-84
2023/02/27 03:37:41;;;;;;;0.82;0.60;;;;;;;;;;10397085;28;20459;-83
2023/02/27 03:42:49;;;;;;;0.60;0.60;;;;;;;;;;10399093;28;21014;-84
2023/02/27 03:47:51;;;;;;;0.80;0.60;;;;;;;;;;10400153;28;20822;-82
2023/02/27 03:52:53;;;;;;;1.88;0.82;;;;;;;;;;10394360;28;20569;-84
2023/02/27 03:57:57;;;;;;;0.93;0.70;;;;;;;;;;10400581;28;20412;-83
2023/02/27 04:03:00;;;;;;;0.70;0.70;;;;;;;;;;10392191;28;20896;-84
2023/02/27 04:08:31;;;;;;;1.27;0.70;;;;;;;;;;10395162;28;20482;-84
2023/02/27 04:13:44;;;;;;;0.73;0.60;;;;;;;;;;10403194;28;20503;-84
2023/02/27 04:19:06;;;;;;;0.65;0.57;;;;;;;;;;10404924;28;20421;-84
2023/02/27 04:24:18;;;;;;;1.88;0.80;;;;;;;;;;10403079;28;20439;-85
2023/02/27 04:29:30;;;;;;;1.13;0.70;;;;;;;;;;10397843;28;20760;-84
2023/02/27 04:34:39;;;;;;;0.70;0.70;;;;;;;;;;10400436;28;20834;-84
2023/02/27 04:39:50;;;;;;;1.50;0.80;;;;;;;;;;10394798;28;20494;-82
2023/02/27 04:44:56;;;;;;;0.80;0.80;;;;;;;;;;10388528;28;20434;-84
2023/02/27 04:50:01;;;;;;;1.38;0.77;;;;;;;;;;10393152;28;20764;-84
2023/02/27 04:55:08;;;;;;;1.13;0.70;;;;;;;;;;10395106;28;21221;-83
2023/02/27 05:00:14;;;;;;;1.88;1.00;;;;;;;;;;10391684;28;20456;-83
2023/02/27 05:05:21;;;;;;;1.75;0.80;;;;;;;;;;10390539;28;20432;-84
2023/02/27 05:10:30;;;;;;;1.37;0.80;;;;;;;;;;10396578;28;20409;-84
2023/02/27 05:15:38;;;;;;;1.95;0.90;;;;;;;;;;10395516;28;20401;-84
2023/02/27 05:20:52;;;;;;;1.20;0.80;;;;;;;;;;10398520;28;21162;-84
2023/02/27 05:25:59;;;;;;;0.77;0.77;;;;;;;;;;10393232;28;20425;-83
2023/02/27 05:31:07;;;;;;;2.70;0.90;;;;;;;;;;10392244;28;20480;-82
2023/02/27 05:36:14;;;;;;;1.20;0.70;;;;;;;;;;10390460;28;20402;-82
2023/02/27 05:41:19;;;;;;;1.55;0.90;;;;;;;;;;10387201;28;20422;-85
2023/02/27 05:46:27;;;;;;;1.13;0.90;;;;;;;;;;10402343;28;20405;-85
2023/02/27 05:51:33;;;;;;;1.52;0.90;;;;;;;;;;10392836;28;20904;-85
2023/02/27 05:56:37;;;;;;;1.00;0.80;;;;;;;;;;10394973;28;20409;-85
2023/02/27 06:01:40;;;;;;;2.53;1.00;;;;;;;;;;10395346;28;20915;-85
2023/02/27 06:06:44;;;;;;;3.20;1.10;;;;;;;;;;10393868;28;20556;-86
2023/02/27 06:11:46;;;;;;;2.10;1.20;;;;;;;;;;10399929;28;20457;-84
2023/02/27 06:16:50;;;;;;;1.63;1.00;;;;;;;;;;10393092;28;20444;-85
2023/02/27 06:21:51;;;;;;;1.98;1.17;;;;;;;;;;10384969;28;20431;-85
2023/02/27 06:26:53;;;;;;;1.92;0.95;;;;;;;;;;10395748;28;20471;-84
2023/02/27 06:31:57;;;;;;;2.40;1.20;;;;;;;;;;10395051;28;20977;-88
2023/02/27 06:36:59;;;;;;;1.67;1.00;;;;;;;;;;10392320;28;20405;-84
2023/02/27 06:42:00;;;;;;;1.92;1.25;;;;;;;;;;10394287;28;20436;-86
2023/02/27 06:47:04;;;;;;;2.70;1.40;;;;;;;;;;10396898;28;20399;-86
2023/02/27 06:52:06;;;;;;;2.00;1.30;;;;;;;;;;10391812;28;20513;-87
2023/02/27 06:57:07;;;;;;;3.85;1.40;;;;;;;;;;10390704;28;20407;-86
2023/02/27 07:02:13;;;;;;;7.18;1.70;;;;;;;;;;10391596;28;20964;-85
2023/02/27 07:07:15;;;;;;;1.65;1.35;;;;;;;;;;10395013;28;20405;-84
2023/02/27 07:12:16;;;;;;;1.93;1.40;;;;;;;;;;10377572;28;20421;-86
2023/02/27 07:17:21;;;;;;;3.00;1.67;;;;;;;;;;10398724;28;20852;-85
2023/02/27 07:22:23;;;;;;;4.95;1.60;;;;;;;;;;10402694;28;20473;-85
2023/02/27 07:27:25;;;;;;;2.72;1.30;;;;;;;;;;10407625;28;20432;-85
2023/02/27 07:32:28;;;;;;;3.55;1.40;;;;;;;;;;10399627;28;20452;-86
2023/02/27 07:37:30;;;;;;;1.73;1.23;;;;;;;;;;10403371;28;20405;-86
2023/02/27 07:42:32;;;;;;;4.83;1.53;;;;;;;;;;10406636;28;20431;-86
2023/02/27 07:47:35;;;;;;;3.30;1.70;;;;;;;;;;10395691;28;20459;-87
2023/02/27 07:52:39;;;;;;;2.03;1.40;;;;;;;;;;10403996;28;20412;-86
2023/02/27 07:57:41;;;;;;;2.00;1.40;;;;;;;;;;10392489;28;20764;-85
2023/02/27 08:02:44;;;;;;;2.60;1.63;;;;;;;;;;10406577;28;20435;-87
2023/02/27 08:07:46;;;;;;;2.60;2.00;;;;;;;;;;10397394;28;20452;-87
2023/02/27 08:12:48;;;;;;;2.90;1.90;;;;;;;;;;10396015;28;20418;-86
2023/02/27 08:17:51;;;;;;;2.85;1.88;;;;;;;;;;10394536;28;20488;-86
2023/02/27 08:22:53;;;;;;;2.05;1.52;;;;;;;;;;10393426;28;20507;-86
2023/02/27 08:27:55;;;;;;;2.10;1.38;;;;;;;;;;10395083;28;20408;-86
2023/02/27 08:32:58;;;;;;;3.25;1.50;;;;;;;;;;10395812;28;20397;-87
2023/02/27 08:38:00;;;;;;;2.60;1.57;;;;;;;;;;10400093;28;20402;-87
2023/02/27 08:43:02;;;;;;;2.93;1.60;;;;;;;;;;10401141;28;20459;-85
2023/02/27 08:48:06;;;;;;;1.80;1.17;;;;;;;;;;10406991;28;20433;-86
2023/02/27 08:53:08;;;;;;;3.80;1.40;;;;;;;;;;10389199;28;20491;-86
2023/02/27 08:58:10;;;;;;;2.03;1.40;;;;;;;;;;10386507;28;20470;-87
2023/02/27 09:03:14;;;;;;;2.20;1.33;;;;;;;;;;10390416;28;20862;-86
2023/02/27 09:08:16;;;;;;;3.22;1.60;;;;;;;;;;10403175;28;20409;-85
2023/02/27 09:13:18;;;;;;;2.50;1.30;;;;;;;;;;10397177;28;20533;-86
2023/02/27 09:18:22;;;;;;;2.00;1.73;;;;;;;;;;10387209;28;20411;-86
2023/02/27 09:23:24;;;;;;;1.70;1.30;;;;;;;;;;10395611;28;20469;-86
2023/02/27 09:28:25;;;;;;;3.70;1.80;;;;;;;;;;10384661;28;20429;-87
2023/02/27 09:33:30;;;;;;;2.28;1.70;;;;;;;;;;10397223;28;20502;-86
2023/02/27 09:38:32;;;;;;;1.60;1.30;;;;;;;;;;10397231;28;20409;-87
2023/02/27 09:43:39;;;;;;;2.10;1.37;;;;;;;;;;10393012;28;20437;-86
2023/02/27 09:48:47;;;;;;;1.30;1.20;;;;;;;;;;10393706;28;20428;-87
2023/02/27 09:53:51;;;;;;;2.13;1.40;;;;;;;;;;10394204;28;20411;-87
2023/02/27 09:59:01;;;;;;;2.15;1.30;;;;;;;;;;10390420;28;20842;-86
2023/02/27 10:04:25;;;;;;;1.80;1.40;;;;;;;;;;10391083;28;20426;-87
2023/02/27 10:09:35;;;;;;;1.50;1.10;;;;;;;;;;10398850;28;20472;-87
2023/02/27 10:14:42;;;;;;;1.77;1.40;;;;;;;;;;10392014;28;20507;-87
2023/02/27 10:19:47;;;;;;;3.90;1.45;;;;;;;;;;10395811;28;20401;-86
2023/02/27 10:24:54;;;;;;;1.55;1.20;;;;;;;;;;10397070;28;20784;-87
2023/02/27 10:30:11;;;;;;;2.10;1.15;;;;;;;;;;10389862;28;20433;-85
2023/02/27 10:35:26;;;;;;;2.30;1.40;;;;;;;;;;10392247;28;20830;-86
2023/02/27 10:40:30;;;;;;;2.35;1.25;;;;;;;;;;10395956;28;20471;-87
2023/02/27 10:45:32;;;;;;;4.33;1.50;;;;;;;;;;10400622;28;20468;-86
2023/02/27 10:50:39;;;;;;;1.30;1.20;;;;;;;;;;10397159;28;20495;-86
2023/02/27 10:55:41;;;;;;;1.87;1.20;;;;;;;;;;10404215;28;20575;-86
2023/02/27 11:00:48;;;;;;;2.13;1.50;;;;;;;;;;10406915;28;20407;-87
2023/02/27 11:05:57;;;;;;;2.90;1.10;;;;;;;;;;10394603;28;20488;-86
2023/02/27 11:11:01;;;;;;;2.42;1.20;;;;;;;;;;10406833;28;20475;-87
2023/02/27 11:16:12;;;;;;;1.85;1.30;;;;;;;;;;10409282;28;20478;-87
2023/02/27 11:21:20;;;;;;;3.40;1.30;;;;;;;;;;10401067;28;20853;-86
2023/02/27 11:26:25;;;;;;;2.70;1.17;;;;;;;;;;10403067;28;20464;-86
2023/02/27 11:31:29;;;;;;;1.63;1.20;;;;;;;;;;10397749;28;20485;-85
2023/02/27 11:36:44;;;;;;;1.40;1.30;;;;;;;;;;10391896;28;20770;-84
2023/02/27 11:41:46;;;;;;;1.45;1.35;;;;;;;;;;10387583;28;20407;-83
2023/02/27 11:46:48;;;;;;;1.47;1.10;;;;;;;;;;10381756;28;20429;-85
2023/02/27 11:52:01;;;;;;;3.50;1.80;;;;;;;;;;10382846;28;20587;-84
2023/02/27 11:57:09;;;;;;;2.40;1.92;;;;;;;;;;10393704;28;20410;-83
2023/02/27 12:02:20;;;;;;;4.22;1.90;;;;;;;;;;10391665;28;20478;-83
2023/02/27 12:07:29;;;;;;;1.92;1.60;;;;;;;;;;10389528;28;20410;-84
2023/02/27 12:12:37;;;;;;;2.70;1.90;;;;;;;;;;10403606;23;20430;-85
2023/02/27 12:17:41;;;;;;;2.67;1.70;;;;;;;;;;10390184;28;21172;-84
2023/02/27 12:22:48;;;;;;;3.33;2.10;;;;;;;;;;10390228;28;20949;-84
2023/02/27 12:27:55;;;;;;;2.05;1.85;;;;;;;;;;10397395;28;20410;-84
2023/02/27 12:33:03;;;;;;;2.63;1.90;;;;;;;;;;10392063;28;20419;-87
2023/02/27 12:38:10;;;;;;;3.08;1.60;;;;;;;;;;10383419;28;20477;-85
2023/02/27 12:43:22;;;;;;;2.50;1.80;;;;;;;;;;10386960;28;20427;-84
2023/02/27 12:48:43;;;;;;;2.97;2.13;;;;;;;;;;10392595;28;20925;-85
2023/02/27 12:54:01;;;;;;;3.05;2.08;;;;;;;;;;10395455;28;20505;-88
2023/02/27 12:59:15;;;;;;;2.50;2.00;;;;;;;;;;10379679;28;20415;-84
2023/02/27 13:04:24;;;;;;;2.75;1.95;;;;;;;;;;10381541;28;20465;-84
2023/02/27 13:09:37;;;;;;;4.00;2.10;;;;;;;;;;10370333;28;20423;-83
2023/02/27 13:14:46;;;;;;;3.03;2.40;;;;;;;;;;10377922;28;20850;-83
2023/02/27 13:19:52;;;;;;;4.70;2.38;;;;;;;;;;10377307;28;20528;-84
2023/02/27 13:24:57;;;;;;;3.70;2.20;;;;;;;;;;10386046;28;20973;-81
2023/02/27 13:30:15;;;;;;;3.70;2.10;;;;;;;;;;10383379;28;20415;-84
2023/02/27 13:35:25;;;;;;;4.43;2.38;;;;;;;;;;10388541;28;20871;-84
2023/02/27 13:40:39;;;;;;;3.53;2.55;;;;;;;;;;10385809;28;20462;-82
2023/02/27 13:45:50;;;;;;;3.67;2.40;;;;;;;;;;10379455;28;20493;-82
2023/02/27 13:50:52;;;;;;;3.95;2.40;;;;;;;;;;10391595;28;20518;-83
2023/02/27 13:56:16;;;;;;;2.70;2.20;;;;;;;;;;10395211;28;20413;-86
2023/02/27 14:01:20;;;;;;;3.50;2.50;;;;;;;;;;10395347;28;20540;-86
2023/02/27 14:06:24;;;;;;;3.58;2.47;;;;;;;;;;10387444;28;20517;-85
2023/02/27 14:11:31;;;;;;;3.42;2.42;;;;;;;;;;10397899;28;20409;-85
2023/02/27 14:17:02;;;;;;;4.80;2.65;;;;;;;;;;10396503;28;21148;-86
2023/02/27 14:22:38;;;;;;;4.32;2.83;;;;;;;;;;10391439;28;20489;-86
2023/02/27 14:27:49;;;;;;;5.47;3.20;;;;;;;;;;10402460;28;20433;-87
2023/02/27 14:32:57;;;;;;;5.85;3.00;;;;;;;;;;10402584;28;20489;-86
2023/02/27 14:38:03;;;;;;;5.63;3.15;;;;;;;;;;10401154;28;20486;-85
2023/02/27 14:43:15;;;;;;;5.07;3.28;;;;;;;;;;10401125;28;20414;-87
2023/02/27 14:48:26;;;;;;;4.93;3.35;;;;;;;;;;10397306;28;20750;-85
2023/02/27 14:53:29;;;;;;;5.40;3.00;;;;;;;;;;10398487;28;20994;-86
2023/02/27 14:58:32;;;;;;;5.47;3.40;;;;;;;;;;10401484;28;20472;-86
2023/02/27 15:03:42;;;;;;;5.13;3.50;;;;;;;;;;10405132;28;20427;-86
2023/02/27 15:08:48;;;;;;;5.22;3.80;;;;;;;;;;10397623;28;20472;-86
2023/02/27 15:14:00;;;;;;;6.22;4.07;;;;;;;;;;10395246;28;20480;-84
2023/02/27 15:19:12;;;;;;;5.10;3.60;;;;;;;;;;10381362;28;20954;-86
2023/02/27 15:24:26;;;;;;;4.97;3.53;;;;;;;;;;10389169;28;20473;-84
2023/02/27 15:29:35;;;;;;;5.57;3.55;;;;;;;;;;10393308;28;20575;-85
2023/02/27 15:34:37;;;;;;;8.75;4.38;;;;;;;;;;10389533;28;20482;-83
2023/02/27 15:39:39;;;;;;;6.73;3.90;;;;;;;;;;10398465;28;20405;-85
2023/02/27 15:44:45;;;;;;;7.85;4.45;;;;;;;;;;10395736;28;20473;-84
2023/02/27 15:49:48;;;;;;;10.20;4.47;;;;;;;;;;10393574;28;20416;-84
2023/02/27 15:54:52;;;;;;;8.70;4.87;;;;;;;;;;10386965;28;20805;-84
2023/02/27 15:59:58;;;;;;;7.85;4.60;;;;;;;;;;10399695;28;20504;-84
2023/02/27 16:05:00;;;;;;;8.65;4.65;;;;;;;;;;10396350;28;20635;-84
2023/02/27 16:10:09;;;;;;;5.80;4.15;;;;;;;;;;10401159;28;20883;-85
2023/02/27 16:15:26;;;;;;;6.40;4.32;;;;;;;;;;10401723;28;20532;-84
2023/02/27 16:20:49;;;;;;;7.75;4.15;;;;;;;;;;10397683;28;20570;-84
2023/02/27 16:26:03;;;;;;;7.30;4.70;;;;;;;;;;10389334;28;20550;-84
2023/02/27 16:31:21;;;;;;;10.35;6.13;;;;;;;;;;10398997;28;20541;-83
2023/02/27 16:36:24;;;;;;;6.97;4.55;;;;;;;;;;10392855;28;20484;-85
2023/02/27 16:41:27;;;;;;;8.55;4.75;;;;;;;;;;10383130;28;20903;-83
2023/02/27 16:46:30;;;;;;;8.95;4.50;;;;;;;;;;10386487;28;20442;-85
2023/02/27 16:51:33;;;;;;;7.50;4.70;;;;;;;;;;10385487;28;20889;-85
2023/02/27 16:56:36;;;;;;;7.30;3.90;;;;;;;;;;10382760;28;20453;-84
2023/02/27 17:01:40;;;;;;;8.75;4.78;;;;;;;;;;10383348;28;20779;-84
2023/02/27 17:06:41;;;;;;;7.95;4.78;;;;;;;;;;10379944;28;20921;-83
2023/02/27 17:11:43;;;;;;;9.77;4.73;;;;;;;;;;10387246;28;20419;-84
2023/02/27 17:16:47;;;;;;;7.57;4.87;;;;;;;;;;10391489;28;20422;-84
2023/02/27 17:21:49;;;;;;;9.40;5.30;;;;;;;;;;10385699;28;20945;-85
2023/02/27 17:26:51;;;;;;;8.02;5.53;;;;;;;;;;10393049;28;20431;-84
2023/02/27 17:31:54;;;;;;;8.98;6.05;;;;;;;;;;10377733;28;20395;-85
2023/02/27 17:36:56;;;;;;;9.77;6.30;;;;;;;;;;10391048;28;20904;-85
2023/02/27 17:41:58;;;;;;;9.73;6.05;;;;;;;;;;10386421;28;20509;-85
2023/02/27 17:47:01;;;;;;;10.90;6.47;;;;;;;;;;10386611;28;20431;-85
2023/02/27 17:52:05;;;;;;;8.53;5.73;;;;;;;;;;10387305;28;21071;-85
2023/02/27 17:57:10;;;;;;;8.47;5.07;;;;;;;;;;10387784;28;20515;-84
2023/02/27 18:02:15;;;;;;;11.60;6.70;;;;;;;;;;10388990;28;20413;-84
2023/02/27 18:07:17;;;;;;;12.07;5.90;;;;;;;;;;10388680;28;20505;-85
2023/02/27 18:12:19;;;;;;;10.80;6.25;;;;;;;;;;10384546;28;20861;-84
2023/02/27 18:17:22;;;;;;;9.93;5.80;;;;;;;;;;10386880;28;20417;-83
2023/02/27 18:22:24;;;;;;;7.63;5.90;;;;;;;;;;10386493;28;20778;-85
2023/02/27 18:27:27;;;;;;;10.23;6.63;;;;;;;;;;10388360;28;20495;-83
2023/02/27 18:32:31;;;;;;;13.05;7.50;;;;;;;;;;10377720;28;20415;-84
2023/02/27 18:37:33;;;;;;;9.37;6.83;;;;;;;;;;10372064;28;20423;-84
2023/02/27 18:42:35;;;;;;;10.63;6.93;;;;;;;;;;10381153;28;20418;-84
2023/02/27 18:47:38;;;;;;;10.67;7.03;;;;;;;;;;10382226;28;20419;-84
2023/02/27 18:52:40;;;;;;;10.70;7.28;;;;;;;;;;10391373;28;20438;-85
2023/02/27 18:57:42;;;;;;;11.15;7.13;;;;;;;;;;10392519;28;20421;-85
2023/02/27 19:02:45;;;;;;;10.50;7.00;;;;;;;;;;10389385;28;20454;-83
2023/02/27 19:07:47;;;;;;;9.05;6.45;;;;;;;;;;10387375;28;20524;-84
2023/02/27 19:12:50;;;;;;;10.70;7.38;;;;;;;;;;10393848;28;20454;-85
2023/02/27 19:17:53;;;;;;;12.87;7.60;;;;;;;;;;10390679;28;20424;-85
2023/02/27 19:22:55;;;;;;;12.07;7.82;;;;;;;;;;10393843;28;20440;-86
2023/02/27 19:27:57;;;;;;;11.48;7.68;;;;;;;;;;10394548;28;20425;-85
2023/02/27 19:33:01;;;;;;;12.95;8.32;;;;;;;;;;10394412;28;20439;-84
2023/02/27 19:38:02;;;;;;;13.15;9.30;;;;;;;;;;10390054;28;20469;-84
2023/02/27 19:43:04;;;;;;;19.57;11.53;;;;;;;;;;10392904;28;20920;-85
2023/02/27 19:48:10;;;;;;;16.87;11.10;;;;;;;;;;10392416;28;20422;-84
2023/02/27 19:53:12;;;;;;;18.65;10.80;;;;;;;;;;10391480;28;20424;-85
2023/02/27 19:58:14;;;;;;;15.77;10.02;;;;;;;;;;10394723;28;20406;-85
2023/02/27 20:03:17;;;;;;;17.17;10.52;;;;;;;;;;10397089;28;20819;-85
2023/02/27 20:08:19;;;;;;;16.52;10.18;;;;;;;;;;10390755;28;20476;-84
2023/02/27 20:13:21;;;;;;;13.70;9.60;;;;;;;;;;10393870;28;20415;-84
2023/02/27 20:18:26;;;;;;;16.05;10.05;;;;;;;;;;10388777;28;20415;-84
2023/02/27 20:23:28;;;;;;;16.40;10.88;;;;;;;;;;10388274;28;20542;-85
2023/02/27 20:28:30;;;;;;;18.20;10.95;;;;;;;;;;10385876;28;20524;-83
2023/02/27 20:33:33;;;;;;;14.87;10.13;;;;;;;;;;10398708;28;20416;-84
2023/02/27 20:38:37;;;;;;;13.90;9.23;;;;;;;;;;10394469;28;20440;-84
2023/02/27 20:43:42;;;;;;;13.15;8.70;;;;;;;;;;10400489;28;20413;-84
2023/02/27 20:48:46;;;;;;;12.82;7.88;;;;;;;;;;10398781;28;20766;-84
2023/02/27 20:53:49;;;;;;;11.57;7.73;;;;;;;;;;10399177;28;20934;-85
2023/02/27 20:58:51;;;;;;;14.15;8.32;;;;;;;;;;10390168;28;20449;-85
2023/02/27 21:03:56;;;;;;;12.02;7.90;;;;;;;;;;10393092;28;20757;-85
2023/02/27 21:09:01;;;;;;;10.98;7.65;;;;;;;;;;10396899;28;20479;-84
2023/02/27 21:14:07;;;;;;;9.05;6.35;;;;;;;;;;10396755;28;20930;-85
2023/02/27 21:19:10;;;;;;;10.23;6.00;;;;;;;;;;10394491;28;20448;-84
2023/02/27 21:24:13;;;;;;;8.57;6.00;;;;;;;;;;10393199;28;20930;-85
2023/02/27 21:29:18;;;;;;;8.43;5.68;;;;;;;;;;10396537;28;20418;-84
2023/02/27 21:34:24;;;;;;;8.38;5.50;;;;;;;;;;10393358;28;20417;-85
2023/02/27 21:39:27;;;;;;;8.52;5.65;;;;;;;;;;10397062;28;20410;-83
2023/02/27 21:44:30;;;;;;;8.60;5.55;;;;;;;;;;10392506;28;21022;-84
2023/02/27 21:49:34;;;;;;;7.30;5.65;;;;;;;;;;10386415;28;20409;-85
2023/02/27 21:54:36;;;;;;;9.25;6.05;;;;;;;;;;10389437;28;20502;-83
2023/02/27 21:59:38;;;;;;;9.18;6.35;;;;;;;;;;10395286;28;20427;-85
2023/02/27 22:04:41;;;;;;;10.70;6.32;;;;;;;;;;10389148;28;20462;-86
2023/02/27 22:09:43;;;;;;;11.23;7.15;;;;;;;;;;10390826;28;20761;-84
2023/02/27 22:14:45;;;;;;;10.45;7.40;;;;;;;;;;10394793;28;20451;-85
2023/02/27 22:19:49;;;;;;;11.63;7.03;;;;;;;;;;10395932;28;20421;-84
2023/02/27 22:24:51;;;;;;;11.45;6.90;;;;;;;;;;10392155;28;21000;-85
2023/02/27 22:29:53;;;;;;;8.93;6.68;;;;;;;;;;10396398;28;20504;-84
2023/02/27 22:34:59;;;;;;;10.70;6.60;;;;;;;;;;10393366;28;20441;-84
2023/02/27 22:40:01;;;;;;;9.43;6.60;;;;;;;;;;10388559;28;20409;-83
2023/02/27 22:45:03;;;;;;;9.68;6.38;;;;;;;;;;10393624;28;20508;-84
2023/02/27 22:50:08;;;;;;;10.33;6.47;;;;;;;;;;10401666;28;20423;-85
2023/02/27 22:55:10;;;;;;;11.00;6.90;;;;;;;;;;10389721;28;20407;-83
2023/02/27 23:00:14;;;;;;;10.20;6.53;;;;;;;;;;10392357;28;20449;-85
2023/02/27 23:05:17;;;;;;;9.33;6.40;;;;;;;;;;10398148;28;20973;-84
2023/02/27 23:10:19;;;;;;;8.15;5.80;;;;;;;;;;10402090;28;20401;-84
2023/02/27 23:15:21;;;;;;;8.55;5.82;;;;;;;;;;10406223;28;20408;-85
2023/02/27 23:20:24;;;;;;;9.98;6.28;;;;;;;;;;10405522;28;20403;-84
2023/02/27 23:25:26;;;;;;;8.50;6.03;;;;;;;;;;10404317;28;20429;-85
2023/02/27 23:30:28;;;;;;;10.27;5.47;;;;;;;;;;10391277;28;20403;-85
2023/02/27 23:35:32;;;;;;;8.73;5.68;;;;;;;;;;10392152;28;20411;-85
2023/02/27 23:40:36;;;;;;;7.72;5.80;;;;;;;;;;10389273;28;20403;-84
2023/02/27 23:45:38;;;;;;;8.33;5.80;;;;;;;;;;10393883;28;20437;-84
2023/02/27 23:50:43;;;;;;;8.00;5.22;;;;;;;;;;10397235;28;20417;-84
2023/02/27 23:55:45;;;;;;;6.40;5.33;;;;;;;;;;10392822;28;20415;-84
